Time;durP1;ratioP1;P1;durP2;ratioP2;P2;SDS_P1;SDS_P2;PMS_P1;PMS_P2;Temp;Humidity;BMP_temperature;BMP_pressure;BME280_temperature;BME280_humidity;BME280_pressure;Samples;Min_cycle;Max_cycle;Signal;HPM_P1;HPM_P2
2022/06/27 00:01:29;;;;;;;16.17;11.07;;;;;;;19.35;86.45;95118.94;4925377;29;20724;-77
2022/06/27 00:03:55;;;;;;;15.05;11.00;;;;;;;19.36;86.01;95125.06;4934514;29;20183;-77
2022/06/27 00:06:20;;;;;;;14.43;8.90;;;;;;;19.21;85.94;95099.88;4934595;29;20191;-77
2022/06/27 00:08:48;;;;;;;9.88;7.32;;;;;;;19.37;85.90;95116.00;4934441;29;20179;-77
2022/06/27 00:11:13;;;;;;;14.95;6.57;;;;;;;19.33;85.59;95120.25;4934614;29;20179;-75
2022/06/27 00:13:39;;;;;;;11.57;5.55;;;;;;;19.19;85.97;95120.72;4934551;29;20597;-76
2022/06/27 00:16:05;;;;;;;10.50;7.55;;;;;;;19.16;85.81;95120.41;4934898;29;20214;-76
2022/06/27 00:18:30;;;;;;;10.65;6.18;;;;;;;19.09;86.65;95111.81;4935354;29;20182;-75
2022/06/27 00:20:56;;;;;;;7.97;5.55;;;;;;;19.06;86.52;95117.66;4935259;29;20183;-76
2022/06/27 00:23:21;;;;;;;9.07;5.18;;;;;;;18.85;86.46;95082.06;4934909;29;20175;-75
2022/06/27 00:25:47;;;;;;;10.70;6.03;;;;;;;19.10;85.96;95124.91;4934735;29;20171;-76
2022/06/27 00:28:12;;;;;;;12.57;5.30;;;;;;;19.06;86.01;95120.34;4934349;29;20640;-76
2022/06/27 00:30:37;;;;;;;12.45;5.70;;;;;;;19.04;85.84;95123.25;4934589;29;20303;-75
2022/06/27 00:33:03;;;;;;;13.75;5.28;;;;;;;19.01;85.92;95125.66;4934254;29;20179;-75
2022/06/27 00:35:28;;;;;;;11.63;5.95;;;;;;;19.01;86.27;95131.00;4934015;29;20195;-75
2022/06/27 00:37:54;;;;;;;10.20;5.65;;;;;;;19.01;86.16;95123.78;4934181;29;20186;-75
2022/06/27 00:40:19;;;;;;;15.98;7.00;;;;;;;19.02;86.27;95124.59;4934004;29;20167;-75
2022/06/27 00:42:45;;;;;;;12.15;6.28;;;;;;;19.03;86.04;95121.66;4933962;29;20656;-75
2022/06/27 00:45:10;;;;;;;13.18;6.05;;;;;;;19.04;85.80;95117.13;4933903;29;20171;-75
2022/06/27 00:47:36;;;;;;;15.00;6.20;;;;;;;18.99;86.20;95120.56;4934494;29;20183;-77
2022/06/27 00:50:02;;;;;;;13.20;6.00;;;;;;;18.71;85.80;95075.53;4934812;29;20183;-77
2022/06/27 00:52:27;;;;;;;9.80;4.97;;;;;;;18.96;85.73;95115.72;4916903;29;20175;-77
2022/06/27 00:54:53;;;;;;;10.88;5.55;;;;;;;18.96;85.91;95112.25;4934401;29;20199;-76
2022/06/27 00:57:18;;;;;;;7.07;4.93;;;;;;;18.93;86.40;95112.78;4935210;29;20556;-77
2022/06/27 00:59:44;;;;;;;9.82;4.57;;;;;;;18.94;86.16;95109.84;4934926;29;20582;-76
2022/06/27 01:02:10;;;;;;;6.35;4.22;;;;;;;18.71;86.19;95081.69;4917372;29;20722;-77
2022/06/27 01:04:36;;;;;;;5.70;4.10;;;;;;;18.85;86.17;95090.84;4934528;29;20190;-77
2022/06/27 01:07:04;;;;;;;6.93;4.00;;;;;;;18.81;86.32;95096.97;4934572;29;20644;-77
2022/06/27 01:09:29;;;;;;;5.40;4.30;;;;;;;18.71;86.46;95089.69;4934608;29;20178;-76
2022/06/27 01:11:55;;;;;;;5.22;4.40;;;;;;;18.70;86.31;95089.94;4934513;29;20689;-77
2022/06/27 01:14:21;;;;;;;9.02;3.65;;;;;;;18.64;87.19;95101.63;4934613;29;20591;-77
2022/06/27 01:16:46;;;;;;;7.20;4.28;;;;;;;18.53;87.80;95102.56;4934999;29;20202;-76
2022/06/27 01:19:14;;;;;;;5.07;4.32;;;;;;;18.50;87.99;95087.91;4917557;29;20974;-76
2022/06/27 01:21:45;;;;;;;7.35;3.78;;;;;;;18.48;87.69;95092.66;4934726;29;20191;-76
2022/06/27 01:24:10;;;;;;;5.95;4.22;;;;;;;18.44;87.83;95094.22;4934799;29;20318;-76
2022/06/27 01:26:36;;;;;;;3.83;3.28;;;;;;;18.37;88.08;95097.09;4934969;29;20183;-77
2022/06/27 01:29:03;;;;;;;10.60;4.65;;;;;;;18.34;88.46;95100.25;4934793;29;20183;-76
2022/06/27 01:31:30;;;;;;;5.88;3.88;;;;;;;18.35;88.84;95099.22;4934637;29;20190;-76
2022/06/27 01:33:55;;;;;;;6.53;3.78;;;;;;;18.34;89.18;95099.47;4934496;29;20183;-77
2022/06/27 01:39:05;;;;;;;6.07;4.47;;;;;;;18.38;88.71;95101.38;4934271;29;20679;-77
2022/06/27 01:41:31;;;;;;;5.35;4.47;;;;;;;18.38;88.63;95101.38;4934234;29;20179;-76
2022/06/27 01:43:56;;;;;;;12.88;4.80;;;;;;;18.39;87.96;95107.53;4934210;29;20178;-77
2022/06/27 01:46:22;;;;;;;9.60;4.80;;;;;;;18.22;88.29;95091.63;4934194;29;20175;-77
2022/06/27 01:48:47;;;;;;;9.13;5.13;;;;;;;18.21;88.59;95099.88;4934490;29;20560;-76
2022/06/27 01:51:13;;;;;;;6.82;4.85;;;;;;;18.24;88.59;95118.84;4934253;29;20183;-76
2022/06/27 01:53:39;;;;;;;7.05;4.28;;;;;;;18.08;88.89;95101.06;4934207;29;20187;-76
2022/06/27 01:56:05;;;;;;;7.85;4.25;;;;;;;18.22;88.73;95125.47;4934100;29;20213;-76
2022/06/27 01:58:31;;;;;;;7.35;4.88;;;;;;;18.20;89.25;95128.38;4933991;29;20258;-77
2022/06/27 02:00:57;;;;;;;10.45;4.70;;;;;;;18.17;89.10;95126.22;4933660;29;20222;-77
2022/06/27 02:03:23;;;;;;;5.82;4.03;;;;;;;18.07;89.32;95124.25;4935607;29;20222;-77
2022/06/27 02:05:51;;;;;;;7.22;4.97;;;;;;;18.02;89.09;95115.41;4937577;29;20262;-76
2022/06/27 02:08:20;;;;;;;11.98;5.55;;;;;;;17.98;88.91;95122.31;4936996;29;20262;-75
2022/06/27 02:10:46;;;;;;;12.02;5.15;;;;;;;18.06;88.77;95136.00;4936487;29;20191;-75
2022/06/27 02:13:13;;;;;;;10.85;4.97;;;;;;;18.12;88.95;95136.03;4919471;29;20186;-75
2022/06/27 02:16:01;;;;;;;8.38;5.03;;;;;;;18.17;88.46;95139.53;4936780;29;20206;-75
2022/06/27 02:18:27;;;;;;;7.88;5.15;;;;;;;18.20;88.13;95141.72;4936890;29;20180;-75
2022/06/27 02:20:53;;;;;;;12.40;4.88;;;;;;;18.21;88.04;95147.84;4936238;29;20201;-75
2022/06/27 02:23:18;;;;;;;9.75;4.80;;;;;;;18.18;87.92;95145.69;4936198;29;20438;-75
2022/06/27 02:25:45;;;;;;;8.90;4.55;;;;;;;18.16;87.46;95142.47;4936444;29;20250;-75
2022/06/27 02:28:13;;;;;;;12.15;4.95;;;;;;;18.14;87.76;95137.41;4936125;29;20199;-76
2022/06/27 02:30:39;;;;;;;8.05;4.80;;;;;;;17.99;87.86;95119.38;4936365;29;20187;-75
2022/06/27 02:33:04;;;;;;;8.27;5.05;;;;;;;18.11;88.20;95143.22;4936505;29;20191;-75
2022/06/27 02:35:31;;;;;;;14.82;5.32;;;;;;;18.08;87.86;95151.69;4936171;29;21010;-75
2022/06/27 02:37:57;;;;;;;7.60;5.30;;;;;;;18.00;87.97;95144.16;4936206;29;20277;-75
2022/06/27 02:40:24;;;;;;;9.48;4.47;;;;;;;18.03;88.37;95152.47;4936224;29;20194;-75
2022/06/27 02:42:53;;;;;;;8.45;5.25;;;;;;;18.01;88.48;95149.25;4936209;29;20696;-75
2022/06/27 02:45:19;;;;;;;8.13;5.45;;;;;;;18.01;88.08;95149.25;4936048;29;20179;-75
2022/06/27 02:47:47;;;;;;;8.65;4.85;;;;;;;18.02;88.19;95153.50;4935937;29;20186;-75
2022/06/27 02:50:13;;;;;;;14.23;5.40;;;;;;;17.92;88.28;95142.75;4936173;29;20183;-75
2022/06/27 02:52:45;;;;;;;10.27;5.07;;;;;;;17.99;88.02;95155.84;4935485;29;20183;-75
2022/06/27 02:55:17;;;;;;;7.78;5.00;;;;;;;17.83;88.27;95135.44;4935463;29;20207;-75
2022/06/27 02:58:00;;;;;;;17.95;5.28;;;;;;;17.98;87.88;95167.59;4934401;29;20269;-75
2022/06/27 03:00:32;;;;;;;9.98;5.60;;;;;;;18.01;88.07;95167.06;4934907;29;20631;-75
2022/06/27 03:02:59;;;;;;;23.98;7.78;;;;;;;17.98;88.30;95167.59;4931201;29;20246;-75
2022/06/27 03:05:25;;;;;;;27.40;11.85;;;;;;;17.97;88.21;95163.31;4935260;29;20191;-74
2022/06/27 03:07:51;;;;;;;21.23;12.07;;;;;;;17.70;88.21;95131.31;4935633;29;20638;-74
2022/06/27 03:10:16;;;;;;;21.25;10.80;;;;;;;17.92;88.58;95160.56;4928931;29;20701;-77
2022/06/27 03:12:41;;;;;;;25.45;10.95;;;;;;;17.70;88.44;95116.13;4930470;29;20567;-76
2022/06/27 03:15:08;;;;;;;21.75;10.55;;;;;;;17.97;88.10;95160.66;4934609;29;20298;-76
2022/06/27 03:17:34;;;;;;;17.55;9.60;;;;;;;17.89;88.43;95153.09;4935332;29;20568;-78
2022/06/27 03:19:59;;;;;;;16.80;8.90;;;;;;;17.96;88.45;95161.72;4936218;29;20246;-78
2022/06/27 03:22:24;;;;;;;13.02;7.20;;;;;;;17.89;88.71;95147.78;4936204;29;20191;-78
2022/06/27 03:24:50;;;;;;;16.23;6.38;;;;;;;18.03;88.09;95164.97;4936634;29;20658;-78
2022/06/27 03:27:15;;;;;;;10.45;6.03;;;;;;;18.10;88.22;95161.06;4936165;29;20246;-78
2022/06/27 03:29:41;;;;;;;13.10;5.70;;;;;;;18.21;88.45;95159.31;4935824;29;20179;-78
2022/06/27 03:32:07;;;;;;;14.38;5.85;;;;;;;18.26;87.76;95164.69;4932017;29;20602;-78
2022/06/27 03:34:33;;;;;;;17.42;5.95;;;;;;;18.31;87.76;95156.75;4935443;29;20265;-77
2022/06/27 03:36:59;;;;;;;9.38;5.47;;;;;;;18.42;87.95;95173.66;4935015;29;20190;-77
2022/06/27 03:39:24;;;;;;;11.85;5.68;;;;;;;18.53;87.45;95174.56;4934998;29;20215;-77
2022/06/27 03:41:50;;;;;;;10.20;6.40;;;;;;;18.53;87.51;95153.22;4935494;29;20187;-77
2022/06/27 03:44:16;;;;;;;16.10;5.93;;;;;;;18.60;87.72;95151.19;4934421;29;20610;-77
2022/06/27 03:46:42;;;;;;;13.18;5.68;;;;;;;18.83;87.40;95169.53;4931115;29;20250;-77
2022/06/27 03:51:52;;;;;;;23.73;8.77;;;;;;;19.09;86.15;95178.53;4931314;29;20221;-77
2022/06/27 03:54:18;;;;;;;15.13;7.88;;;;;;;19.20;85.20;95174.88;4933555;29;20551;-77
2022/06/27 03:56:44;;;;;;;19.73;8.45;;;;;;;19.30;84.73;95174.13;4932567;29;20190;-77
2022/06/27 03:59:10;;;;;;;14.98;7.45;;;;;;;19.35;83.89;95158.97;4931669;29;20191;-77
2022/06/27 04:01:35;;;;;;;11.45;6.72;;;;;;;19.58;83.23;95176.50;4931271;29;20223;-76
2022/06/27 04:04:01;;;;;;;20.13;7.13;;;;;;;19.71;82.93;95184.06;4933832;29;20221;-75
2022/06/27 04:06:26;;;;;;;35.70;21.27;;;;;;;19.84;83.08;95180.91;4934591;29;20659;-77
2022/06/27 04:08:52;;;;;;;31.30;16.75;;;;;;;19.96;82.78;95181.50;4933973;29;20674;-78
2022/06/27 04:11:17;;;;;;;19.63;11.57;;;;;;;20.04;82.11;95172.16;4934573;29;20656;-75
2022/06/27 04:13:43;;;;;;;27.05;14.57;;;;;;;20.26;81.68;95190.69;4934494;29;20183;-77
2022/06/27 04:16:08;;;;;;;20.73;12.85;;;;;;;20.43;80.54;95177.91;4934796;29;20688;-76
2022/06/27 04:18:34;;;;;;;12.25;6.18;;;;;;;20.58;79.69;95179.84;4935007;29;20171;-76
2022/06/27 04:21:00;;;;;;;16.95;10.38;;;;;;;20.70;80.01;95183.06;4934144;29;20657;-76
2022/06/27 04:23:25;;;;;;;9.05;4.15;;;;;;;20.78;78.86;95187.06;4934934;29;20227;-76
2022/06/27 04:25:52;;;;;;;8.52;5.53;;;;;;;20.94;78.19;95186.81;4934531;29;20171;-76
2022/06/27 04:28:18;;;;;;;6.85;4.25;;;;;;;21.13;78.05;95186.28;4934532;29;20702;-76
2022/06/27 04:30:44;;;;;;;7.55;5.68;;;;;;;21.23;76.91;95191.66;4934726;29;20195;-77
2022/06/27 04:33:10;;;;;;;4.88;3.83;;;;;;;21.37;76.73;95188.16;4934074;29;20194;-76
2022/06/27 04:35:36;;;;;;;12.13;4.90;;;;;;;21.55;77.30;95186.00;4934810;29;20235;-76
2022/06/27 04:38:02;;;;;;;7.88;5.18;;;;;;;21.60;76.74;95194.03;4917461;29;20230;-76
2022/06/27 04:40:28;;;;;;;6.05;4.70;;;;;;;21.78;75.94;95193.47;4935052;29;20182;-77
2022/06/27 04:42:56;;;;;;;8.52;4.35;;;;;;;21.99;75.77;95186.97;4935022;29;20258;-76
2022/06/27 04:45:22;;;;;;;8.40;4.95;;;;;;;22.14;75.44;95186.91;4934193;29;20190;-77
2022/06/27 04:47:48;;;;;;;11.52;5.07;;;;;;;22.25;74.50;95186.88;4934249;29;20175;-76
2022/06/27 04:50:18;;;;;;;8.55;4.55;;;;;;;22.35;74.21;95187.63;4932336;29;20187;-78
2022/06/27 04:52:45;;;;;;;6.90;4.60;;;;;;;22.58;74.28;95189.63;4934331;29;20171;-75
2022/06/27 04:55:12;;;;;;;7.45;4.60;;;;;;;22.78;72.45;95186.06;4934423;29;20234;-76
2022/06/27 04:57:42;;;;;;;8.90;4.85;;;;;;;23.03;71.47;95190.44;4934303;29;20235;-76
2022/06/27 05:00:11;;;;;;;8.32;4.50;;;;;;;23.25;70.81;95187.31;4934252;29;20183;-77
2022/06/27 05:02:37;;;;;;;11.05;4.53;;;;;;;23.54;70.51;95185.44;4934095;29;20519;-77
2022/06/27 05:05:03;;;;;;;15.45;5.15;;;;;;;23.89;69.13;95196.94;4934403;29;20234;-76
2022/06/27 05:07:30;;;;;;;8.10;5.03;;;;;;;24.15;67.10;95206.31;4934130;29;20785;-76
2022/06/27 05:09:57;;;;;;;12.27;5.22;;;;;;;24.36;66.79;95199.63;4933597;29;20632;-76
2022/06/27 05:12:26;;;;;;;7.25;4.55;;;;;;;24.62;65.94;95202.78;4933057;29;20175;-76
2022/06/27 05:14:52;;;;;;;8.68;4.90;;;;;;;24.71;65.65;95173.31;4933064;29;20199;-76
2022/06/27 05:17:18;;;;;;;9.82;3.97;;;;;;;25.25;63.86;95217.81;4933311;29;20265;-76
2022/06/27 05:19:44;;;;;;;7.47;4.50;;;;;;;25.65;62.97;95214.44;4933428;29;20223;-76
2022/06/27 05:22:10;;;;;;;5.78;3.90;;;;;;;26.11;61.27;95217.09;4933615;29;20182;-76
2022/06/27 05:24:35;;;;;;;8.60;4.15;;;;;;;26.41;59.55;95204.91;4933154;29;20187;-76
2022/06/27 05:27:01;;;;;;;6.28;4.00;;;;;;;26.64;60.52;95198.47;4932559;29;20319;-76
2022/06/27 05:29:26;;;;;;;10.82;4.38;;;;;;;27.01;57.97;95204.69;4933918;29;20175;-76
2022/06/27 05:31:52;;;;;;;13.57;5.55;;;;;;;27.37;57.95;95213.56;4933819;29;20624;-76
2022/06/27 05:34:17;;;;;;;13.30;6.90;;;;;;;27.65;57.99;95205.34;4933718;29;20185;-76
2022/06/27 05:36:43;;;;;;;10.63;7.03;;;;;;;27.83;55.23;95201.63;4933671;29;20215;-78
2022/06/27 05:39:09;;;;;;;11.57;4.93;;;;;;;28.12;55.97;95212.72;4937504;29;20183;-76
2022/06/27 05:41:37;;;;;;;10.02;5.97;;;;;;;28.26;55.47;95203.75;4938110;29;20611;-78
2022/06/27 05:44:03;;;;;;;13.05;9.80;;;;;;;28.52;55.24;95201.91;4938415;29;20198;-77
2022/06/27 05:46:29;;;;;;;15.45;8.52;;;;;;;28.76;54.37;95213.13;4938394;29;20183;-77
2022/06/27 05:48:55;;;;;;;21.92;12.85;;;;;;;29.13;52.59;95211.72;4939092;29;20179;-77
2022/06/27 05:51:22;;;;;;;10.30;5.65;;;;;;;29.07;52.27;95206.75;4938289;29;20187;-77
2022/06/27 05:53:49;;;;;;;8.25;5.53;;;;;;;29.13;53.44;95214.44;4920975;29;20579;-77
2022/06/27 05:56:15;;;;;;;17.73;5.45;;;;;;;29.03;52.19;95190.34;4938038;29;20677;-77
2022/06/27 05:58:41;;;;;;;17.05;5.22;;;;;;;28.63;52.01;95203.19;4937894;29;20191;-77
2022/06/27 06:01:08;;;;;;;23.60;8.48;;;;;;;28.45;53.23;95207.00;4937710;29;20614;-77
2022/06/27 06:03:35;;;;;;;18.10;6.25;;;;;;;28.08;53.37;95213.69;4938117;29;20661;-77
2022/06/27 06:06:00;;;;;;;10.25;5.70;;;;;;;27.66;54.84;95193.41;4937615;29;20183;-77
2022/06/27 06:08:26;;;;;;;19.52;5.90;;;;;;;27.79;56.96;95216.88;4937857;29;20235;-77
2022/06/27 06:10:52;;;;;;;8.30;5.57;;;;;;;28.02;56.13;95213.00;4937420;29;20243;-77
2022/06/27 06:13:18;;;;;;;8.23;5.55;;;;;;;28.13;54.50;95213.53;4937734;29;20186;-77
2022/06/27 06:15:45;;;;;;;8.63;5.53;;;;;;;28.11;55.63;95207.63;4937913;29;20573;-77
2022/06/27 06:18:11;;;;;;;7.82;4.82;;;;;;;28.09;55.76;95197.13;4937238;29;20179;-77
2022/06/27 06:20:37;;;;;;;10.77;5.10;;;;;;;28.29;54.78;95216.63;4937539;29;20171;-77
2022/06/27 06:23:03;;;;;;;6.75;4.93;;;;;;;28.24;53.94;95219.50;4937255;29;20563;-77
2022/06/27 06:25:29;;;;;;;6.43;4.55;;;;;;;28.06;54.13;95213.97;4937434;29;20179;-78
2022/06/27 06:28:00;;;;;;;6.90;4.97;;;;;;;27.98;55.63;95198.50;4937333;29;20209;-77
2022/06/27 06:30:26;;;;;;;9.55;4.97;;;;;;;28.01;54.81;95216.84;4929607;29;20278;-77
2022/06/27 06:32:52;;;;;;;6.57;4.88;;;;;;;27.90;55.29;95210.09;4937490;29;20611;-77
2022/06/27 06:35:18;;;;;;;10.85;4.78;;;;;;;27.82;56.15;95202.72;4937031;29;20679;-78
2022/06/27 06:37:44;;;;;;;5.80;4.32;;;;;;;28.04;55.86;95218.09;4937357;29;20189;-78
2022/06/27 06:40:16;;;;;;;7.55;4.43;;;;;;;27.90;55.16;95212.81;4937489;29;20258;-79
2022/06/27 06:42:42;;;;;;;7.22;5.90;;;;;;;27.88;55.69;95197.97;4937234;29;20279;-78
2022/06/27 06:45:08;;;;;;;9.32;5.75;;;;;;;28.14;55.07;95229.47;4936922;29;20262;-78
2022/06/27 06:47:34;;;;;;;6.05;4.65;;;;;;;28.00;55.51;95222.56;4936805;29;20186;-79
2022/06/27 06:50:00;;;;;;;8.85;4.70;;;;;;;27.87;54.57;95224.25;4918438;29;20206;-78
2022/06/27 06:52:27;;;;;;;6.32;4.55;;;;;;;27.70;56.00;95176.25;4936968;29;20180;-78
2022/06/27 06:54:53;;;;;;;9.93;5.32;;;;;;;28.22;58.25;95227.94;4936993;29;20207;-78
2022/06/27 06:57:18;;;;;;;7.95;5.22;;;;;;;28.47;55.68;95226.41;4943525;29;20282;-78
2022/06/27 06:59:44;;;;;;;7.55;4.47;;;;;;;28.70;56.31;95225.22;4936875;29;20186;-78
2022/06/27 07:02:10;;;;;;;12.13;4.18;;;;;;;29.14;53.07;95235.03;4936486;29;20219;-79
2022/06/27 07:04:36;;;;;;;10.93;5.32;;;;;;;29.06;51.48;95237.72;4936407;29;20185;-79
2022/06/27 07:07:02;;;;;;;4.80;4.30;;;;;;;29.01;54.79;95241.38;4938234;29;20171;-79
2022/06/27 07:09:28;;;;;;;9.07;4.45;;;;;;;29.03;54.48;95241.06;4938254;29;20191;-79
2022/06/27 07:11:53;;;;;;;8.82;4.60;;;;;;;28.61;53.59;95242.56;4936675;29;20190;-79
2022/06/27 07:14:19;;;;;;;6.57;5.00;;;;;;;28.33;54.94;95214.91;4936755;29;20182;-79
2022/06/27 07:16:47;;;;;;;6.03;4.32;;;;;;;28.90;52.91;95240.88;4936230;29;20207;-80
2022/06/27 07:19:13;;;;;;;6.05;3.85;;;;;;;29.14;52.15;95245.88;4936668;29;20190;-79
2022/06/27 07:21:39;;;;;;;5.50;4.40;;;;;;;29.02;50.09;95250.31;4936471;29;20265;-79
2022/06/27 07:24:08;;;;;;;8.07;4.78;;;;;;;29.01;50.88;95249.53;4935841;29;20335;-79
2022/06/27 07:26:35;;;;;;;7.03;3.65;;;;;;;29.19;49.91;95243.00;4934700;29;20183;-78
2022/06/27 07:29:04;;;;;;;7.13;3.90;;;;;;;29.42;50.16;95251.78;4922711;29;20621;-76
2022/06/27 07:31:31;;;;;;;9.13;4.28;;;;;;;29.67;51.54;95242.00;4934805;29;20649;-77
2022/06/27 07:33:56;;;;;;;4.95;3.92;;;;;;;29.98;49.43;95247.25;4934607;29;20214;-76
2022/06/27 07:36:25;;;;;;;4.80;3.85;;;;;;;30.18;49.76;95241.13;4934503;29;20692;-76
2022/06/27 07:38:52;;;;;;;4.35;3.90;;;;;;;29.93;48.41;95244.69;4934835;29;20175;-76
2022/06/27 07:41:22;;;;;;;6.05;4.03;;;;;;;29.86;46.63;95247.09;4934951;29;20241;-76
2022/06/27 07:43:49;;;;;;;8.23;4.03;;;;;;;29.42;47.58;95248.28;4934886;29;20259;-76
2022/06/27 07:46:17;;;;;;;5.20;3.50;;;;;;;29.39;49.54;95240.78;4934667;29;20175;-77
2022/06/27 07:48:44;;;;;;;6.95;3.78;;;;;;;29.57;49.40;95242.38;4935466;29;20627;-78
2022/06/27 07:51:10;;;;;;;6.45;3.63;;;;;;;29.21;47.65;95216.34;4933379;29;20214;-82
2022/06/27 07:53:37;;;;;;;4.40;2.70;;;;;;;29.18;47.84;95208.03;4935602;29;20641;-82
2022/06/27 07:56:06;;;;;;;3.50;3.15;;;;;;;29.41;48.32;95236.63;4935625;29;20195;-80
2022/06/27 07:58:33;;;;;;;4.03;3.10;;;;;;;29.45;45.41;95242.22;4935679;29;20180;-82
2022/06/27 08:01:02;;;;;;;4.75;3.35;;;;;;;29.13;45.42;95227.19;4917938;29;20579;-81
2022/06/27 08:03:39;;;;;;;4.80;3.15;;;;;;;29.44;46.10;95238.69;4935227;29;20201;-81
2022/06/27 08:06:10;;;;;;;5.78;3.15;;;;;;;29.66;45.27;95236.94;4934621;29;20175;-80
2022/06/27 08:08:41;;;;;;;5.75;3.08;;;;;;;29.58;48.55;95233.09;4934928;29;20266;-80
2022/06/27 08:11:10;;;;;;;4.13;2.88;;;;;;;28.81;50.57;95214.88;4935122;29;20187;-80
2022/06/27 08:13:37;;;;;;;3.88;2.92;;;;;;;29.26;46.95;95231.66;4934854;29;20179;-80
2022/06/27 08:16:05;;;;;;;4.88;3.35;;;;;;;29.43;47.83;95230.88;4935079;29;20210;-81
2022/06/27 08:18:32;;;;;;;4.85;3.00;;;;;;;29.20;46.61;95232.94;4934925;29;20258;-81
2022/06/27 08:21:01;;;;;;;5.63;3.10;;;;;;;29.11;47.75;95240.28;4918105;29;20167;-80
2022/06/27 08:23:27;;;;;;;6.50;3.35;;;;;;;29.42;47.33;95234.69;4935501;29;20186;-80
2022/06/27 08:25:53;;;;;;;4.20;3.38;;;;;;;29.59;48.05;95237.41;4935335;29;20911;-82
2022/06/27 08:28:20;;;;;;;5.25;3.28;;;;;;;29.95;51.09;95223.47;4935166;29;20178;-81
2022/06/27 08:30:46;;;;;;;5.97;3.75;;;;;;;30.37;46.06;95230.63;4935382;29;20186;-81
2022/06/27 08:33:12;;;;;;;4.20;3.20;;;;;;;30.56;45.91;95237.63;4933138;29;20187;-87
2022/06/27 08:35:39;;;;;;;4.43;3.20;;;;;;;30.58;43.63;95238.09;4928721;29;20205;-81
2022/06/27 08:38:05;;;;;;;7.82;3.65;;;;;;;29.76;44.54;95215.66;4934836;29;20190;-81
2022/06/27 08:40:32;;;;;;;5.95;3.08;;;;;;;29.90;47.57;95226.34;4934822;29;20174;-81
2022/06/27 08:42:58;;;;;;;4.80;3.58;;;;;;;29.85;44.67;95221.06;4934872;29;20170;-82
2022/06/27 08:45:25;;;;;;;6.65;3.83;;;;;;;29.83;48.72;95228.75;4934291;29;20684;-78
2022/06/27 08:47:58;;;;;;;3.33;2.90;;;;;;;29.82;46.44;95227.94;4934729;29;20669;-78
2022/06/27 08:50:24;;;;;;;5.72;3.15;;;;;;;29.84;45.15;95212.09;4934332;29;20249;-78
2022/06/27 08:52:52;;;;;;;7.10;3.33;;;;;;;29.88;45.83;95204.94;4933932;29;20283;-78
2022/06/27 08:55:18;;;;;;;4.47;3.05;;;;;;;29.62;48.01;95224.00;4934203;29;20203;-78
2022/06/27 08:57:45;;;;;;;4.72;2.83;;;;;;;29.74;45.73;95211.69;4934850;29;20190;-80
2022/06/27 09:00:14;;;;;;;6.07;2.75;;;;;;;29.72;47.32;95219.34;4917696;29;20174;-82
2022/06/27 09:02:43;;;;;;;5.90;2.95;;;;;;;29.51;45.94;95219.22;4909901;29;20727;-82
2022/06/27 09:05:26;;;;;;;4.07;2.80;;;;;;;29.56;49.47;95217.16;4934916;29;20642;-81
2022/06/27 09:07:57;;;;;;;2.80;2.50;;;;;;;29.82;46.03;95232.59;4934913;29;20242;-82
2022/06/27 09:10:33;;;;;;;4.82;2.65;;;;;;;29.59;44.70;95211.06;4935474;29;20164;-82
2022/06/27 09:13:17;;;;;;;5.55;2.83;;;;;;;29.45;46.58;95225.94;4934220;29;20208;-82
2022/06/27 09:15:49;;;;;;;3.58;2.70;;;;;;;29.27;48.20;95223.19;4935034;29;20547;-82
2022/06/27 09:18:17;;;;;;;3.28;2.80;;;;;;;29.01;45.19;95216.97;4934374;29;20623;-82
2022/06/27 09:21:00;;;;;;;11.05;3.75;;;;;;;28.66;46.01;95221.53;4934779;29;20164;-82
2022/06/27 09:23:39;;;;;;;4.32;2.88;;;;;;;28.40;48.87;95228.78;4917509;29;20201;-82
2022/06/27 09:26:29;;;;;;;3.50;3.05;;;;;;;28.13;46.69;95217.03;4926800;29;20175;-82
2022/06/27 09:28:56;;;;;;;5.80;2.80;;;;;;;27.97;48.80;95215.06;4922055;29;20195;-82
2022/06/27 09:31:30;;;;;;;3.38;3.05;;;;;;;27.78;50.66;95218.78;4934538;29;20266;-82
2022/06/27 09:34:18;;;;;;;10.93;8.07;;;;;;;27.61;50.19;95212.47;4934505;29;20192;-82
2022/06/27 09:36:59;;;;;;;4.15;3.22;;;;;;;27.68;51.65;95210.13;4934372;29;20217;-82
2022/06/27 09:39:31;;;;;;;3.38;2.90;;;;;;;27.75;49.44;95214.00;4935021;29;20262;-81
2022/06/27 09:42:04;;;;;;;3.85;2.70;;;;;;;27.87;49.46;95190.97;4934294;29;20183;-80
2022/06/27 09:44:41;;;;;;;3.70;2.58;;;;;;;28.05;49.19;95185.31;4934357;29;20277;-79
2022/06/27 09:47:26;;;;;;;5.20;2.72;;;;;;;28.28;46.99;95199.59;4934534;29;20262;-80
2022/06/27 09:49:56;;;;;;;5.05;2.83;;;;;;;28.36;48.98;95206.97;4934080;29;20190;-78
2022/06/27 09:52:25;;;;;;;5.65;3.08;;;;;;;28.34;50.94;95203.75;4933998;29;20616;-78
2022/06/27 09:54:53;;;;;;;5.80;3.30;;;;;;;28.34;49.35;95200.25;4933680;29;20206;-78
2022/06/27 09:57:20;;;;;;;3.20;2.85;;;;;;;28.42;50.06;95204.91;4934174;29;20680;-78
2022/06/27 09:59:48;;;;;;;6.70;3.15;;;;;;;28.57;48.85;95190.91;4933796;29;20185;-80
2022/06/27 10:02:17;;;;;;;4.65;2.67;;;;;;;28.90;49.39;95200.22;4934175;29;20337;-79
2022/06/27 10:04:44;;;;;;;3.92;3.20;;;;;;;29.13;47.16;95200.09;4934624;29;20354;-79
2022/06/27 10:07:11;;;;;;;3.08;2.60;;;;;;;29.30;53.35;95197.34;4934015;29;20183;-78
2022/06/27 10:09:38;;;;;;;5.45;2.63;;;;;;;29.46;46.01;95200.41;4933985;29;20266;-78
2022/06/27 10:12:18;;;;;;;2.75;2.38;;;;;;;29.54;44.56;95205.81;4933991;29;20253;-78
2022/06/27 10:14:44;;;;;;;4.68;2.50;;;;;;;29.45;45.53;95199.59;4934304;29;20629;-78
2022/06/27 10:17:14;;;;;;;6.22;3.00;;;;;;;29.51;48.82;95194.78;4933938;29;20187;-77
2022/06/27 10:19:59;;;;;;;4.07;3.60;;;;;;;29.57;50.16;95191.59;4933864;29;20339;-77
2022/06/27 10:22:26;;;;;;;8.27;3.00;;;;;;;29.66;49.18;95174.50;4933852;29;21025;-77
2022/06/27 10:24:51;;;;;;;4.32;3.10;;;;;;;29.57;47.93;95190.81;4932876;29;20210;-77
2022/06/27 10:27:30;;;;;;;6.38;3.25;;;;;;;29.44;48.64;95184.44;4937015;29;20257;-77
2022/06/27 10:29:57;;;;;;;5.45;3.33;;;;;;;29.08;48.31;95160.34;4929476;29;20179;-77
2022/06/27 10:32:40;;;;;;;6.53;3.03;;;;;;;29.06;50.24;95175.34;4937231;29;20316;-78
2022/06/27 10:35:07;;;;;;;6.90;3.13;;;;;;;29.00;52.03;95152.22;4936964;29;20195;-77
2022/06/27 10:37:34;;;;;;;9.57;3.47;;;;;;;29.06;47.36;95172.66;4936885;29;20263;-77
2022/06/27 10:40:21;;;;;;;4.32;3.40;;;;;;;28.33;48.46;95168.88;4936883;29;20263;-77
2022/06/27 10:42:48;;;;;;;4.53;3.50;;;;;;;27.89;51.28;95165.19;4936782;29;20711;-77
2022/06/27 10:45:19;;;;;;;10.55;3.13;;;;;;;27.87;50.84;95164.69;4935978;29;20262;-79
2022/06/27 10:47:46;;;;;;;8.18;3.30;;;;;;;28.00;51.43;95169.22;4936609;29;20281;-79
2022/06/27 10:50:15;;;;;;;4.22;3.00;;;;;;;28.20;51.13;95173.28;4936524;29;20263;-79
2022/06/27 10:52:41;;;;;;;5.72;3.60;;;;;;;28.45;50.36;95169.06;4935858;29;20270;-79
2022/06/27 10:55:29;;;;;;;4.25;3.03;;;;;;;28.75;53.66;95170.03;4934194;29;20285;-79
2022/06/27 10:57:56;;;;;;;4.00;3.42;;;;;;;28.69;51.06;95145.00;4931046;29;20179;-79
2022/06/27 11:00:41;;;;;;;6.13;2.80;;;;;;;28.98;52.16;95162.56;4934033;29;20672;-79
2022/06/27 11:03:09;;;;;;;4.22;2.70;;;;;;;29.19;50.92;95163.53;4931811;29;20281;-79
2022/06/27 11:05:55;;;;;;;3.13;2.90;;;;;;;29.31;47.32;95165.59;4934474;29;20230;-79
2022/06/27 11:08:23;;;;;;;6.68;3.28;;;;;;;29.19;47.08;95164.31;4935642;29;20213;-79
2022/06/27 11:10:49;;;;;;;4.72;3.20;;;;;;;28.76;45.35;95152.66;4919365;29;20183;-79
2022/06/27 11:13:41;;;;;;;4.15;2.47;;;;;;;28.21;47.09;95158.63;4935610;29;20265;-78
2022/06/27 11:16:09;;;;;;;5.60;2.63;;;;;;;27.79;46.74;95135.69;4935616;29;20199;-78
2022/06/27 11:18:48;;;;;;;5.97;2.92;;;;;;;27.68;47.58;95161.41;4936088;29;20179;-78
2022/06/27 11:21:23;;;;;;;3.33;3.00;;;;;;;27.34;48.25;95145.75;4935939;29;20183;-78
2022/06/27 11:24:00;;;;;;;4.45;2.42;;;;;;;27.42;49.36;95159.34;4911813;29;20189;-78
2022/06/27 11:26:29;;;;;;;3.88;2.70;;;;;;;27.62;49.52;95143.72;4935752;29;20179;-79
2022/06/27 11:31:58;;;;;;;3.45;2.13;;;;;;;28.18;44.16;95134.91;4935870;29;20217;-79
2022/06/27 11:34:25;;;;;;;3.85;2.08;;;;;;;28.42;45.75;95150.72;4936516;29;20190;-80
2022/06/27 11:36:55;;;;;;;3.03;2.50;;;;;;;28.35;46.24;95156.59;4934264;29;20688;-80
2022/06/27 11:39:26;;;;;;;3.15;2.45;;;;;;;28.18;47.27;95129.47;4934077;29;20167;-80
2022/06/27 11:41:57;;;;;;;3.65;2.58;;;;;;;27.76;46.84;95149.84;4934168;29;20297;-80